sensor_id;sensor_type;location;lat;lon;timestamp;P1;durP1;ratioP1;P2;durP2;ratioP2
13571;SDS011;6857;53.484;10.216;2023-03-25T00:01:31;6.80;;;3.70;;
13571;SDS011;6857;53.484;10.216;2023-03-25T00:04:00;6.73;;;4.40;;
13571;SDS011;6857;53.484;10.216;2023-03-25T00:06:28;7.50;;;4.10;;
13571;SDS011;6857;53.484;10.216;2023-03-25T00:08:55;7.50;;;4.47;;
13571;SDS011;6857;53.484;10.216;2023-03-25T00:11:21;8.60;;;4.00;;
13571;SDS011;6857;53.484;10.216;2023-03-25T00:13:47;4.97;;;3.50;;
13571;SDS011;6857;53.484;10.216;2023-03-25T00:16:13;4.70;;;3.57;;
13571;SDS011;6857;53.484;10.216;2023-03-25T00:18:39;5.70;;;3.30;;
13571;SDS011;6857;53.484;10.216;2023-03-25T00:21:05;6.33;;;3.17;;
13571;SDS011;6857;53.484;10.216;2023-03-25T00:23:34;5.67;;;3.47;;
13571;SDS011;6857;53.484;10.216;2023-03-25T00:26:01;5.10;;;3.20;;
13571;SDS011;6857;53.484;10.216;2023-03-25T00:28:27;7.17;;;3.60;;
13571;SDS011;6857;53.484;10.216;2023-03-25T00:30:57;5.57;;;3.47;;
13571;SDS011;6857;53.484;10.216;2023-03-25T00:33:25;6.37;;;3.57;;
13571;SDS011;6857;53.484;10.216;2023-03-25T00:35:51;6.50;;;3.90;;
13571;SDS011;6857;53.484;10.216;2023-03-25T00:38:18;7.00;;;3.70;;
13571;SDS011;6857;53.484;10.216;2023-03-25T00:40:44;5.87;;;3.23;;
13571;SDS011;6857;53.484;10.216;2023-03-25T00:43:13;6.57;;;3.70;;
13571;SDS011;6857;53.484;10.216;2023-03-25T00:45:38;8.10;;;3.77;;
13571;SDS011;6857;53.484;10.216;2023-03-25T00:48:04;6.27;;;3.10;;
13571;SDS011;6857;53.484;10.216;2023-03-25T00:50:30;6.40;;;3.10;;
13571;SDS011;6857;53.484;10.216;2023-03-25T00:52:55;5.03;;;3.37;;
13571;SDS011;6857;53.484;10.216;2023-03-25T00:55:21;5.70;;;3.50;;
13571;SDS011;6857;53.484;10.216;2023-03-25T00:57:47;7.63;;;3.47;;
13571;SDS011;6857;53.484;10.216;2023-03-25T01:00:14;6.80;;;3.70;;
13571;SDS011;6857;53.484;10.216;2023-03-25T01:02:41;6.47;;;3.23;;
13571;SDS011;6857;53.484;10.216;2023-03-25T01:05:07;6.83;;;3.47;;
13571;SDS011;6857;53.484;10.216;2023-03-25T01:07:34;5.33;;;3.47;;
13571;SDS011;6857;53.484;10.216;2023-03-25T01:10:01;7.37;;;3.40;;
13571;SDS011;6857;53.484;10.216;2023-03-25T01:12:27;5.87;;;3.80;;
13571;SDS011;6857;53.484;10.216;2023-03-25T01:14:53;6.47;;;3.47;;
13571;SDS011;6857;53.484;10.216;2023-03-25T01:17:19;6.23;;;3.53;;
13571;SDS011;6857;53.484;10.216;2023-03-25T01:19:45;7.33;;;4.23;;
13571;SDS011;6857;53.484;10.216;2023-03-25T01:22:10;5.43;;;3.43;;
13571;SDS011;6857;53.484;10.216;2023-03-25T01:24:36;4.53;;;3.30;;
13571;SDS011;6857;53.484;10.216;2023-03-25T01:27:02;6.13;;;3.73;;
13571;SDS011;6857;53.484;10.216;2023-03-25T01:29:28;5.67;;;3.40;;
13571;SDS011;6857;53.484;10.216;2023-03-25T01:31:54;7.37;;;3.90;;
13571;SDS011;6857;53.484;10.216;2023-03-25T01:34:20;6.20;;;3.73;;
13571;SDS011;6857;53.484;10.216;2023-03-25T01:36:45;8.40;;;3.83;;
13571;SDS011;6857;53.484;10.216;2023-03-25T01:39:12;7.17;;;3.70;;
13571;SDS011;6857;53.484;10.216;2023-03-25T01:41:41;6.20;;;3.37;;
13571;SDS011;6857;53.484;10.216;2023-03-25T01:46:45;5.97;;;3.83;;
13571;SDS011;6857;53.484;10.216;2023-03-25T01:49:13;5.50;;;3.33;;
13571;SDS011;6857;53.484;10.216;2023-03-25T01:51:45;5.90;;;3.17;;
13571;SDS011;6857;53.484;10.216;2023-03-25T01:54:13;6.13;;;3.50;;
13571;SDS011;6857;53.484;10.216;2023-03-25T01:56:42;9.93;;;3.60;;
13571;SDS011;6857;53.484;10.216;2023-03-25T01:59:10;7.40;;;3.30;;
13571;SDS011;6857;53.484;10.216;2023-03-25T02:01:38;6.37;;;3.07;;
13571;SDS011;6857;53.484;10.216;2023-03-25T02:04:04;7.80;;;3.33;;
13571;SDS011;6857;53.484;10.216;2023-03-25T02:06:45;5.13;;;2.90;;
13571;SDS011;6857;53.484;10.216;2023-03-25T02:09:18;4.57;;;2.50;;
13571;SDS011;6857;53.484;10.216;2023-03-25T02:11:48;7.07;;;3.30;;
13571;SDS011;6857;53.484;10.216;2023-03-25T02:14:15;6.87;;;3.20;;
13571;SDS011;6857;53.484;10.216;2023-03-25T02:16:46;6.00;;;3.00;;
13571;SDS011;6857;53.484;10.216;2023-03-25T02:30:56;6.37;;;3.90;;
13571;SDS011;6857;53.484;10.216;2023-03-25T02:33:57;6.90;;;3.47;;
13571;SDS011;6857;53.484;10.216;2023-03-25T02:36:34;6.97;;;3.93;;
13571;SDS011;6857;53.484;10.216;2023-03-25T02:39:12;5.03;;;3.37;;
13571;SDS011;6857;53.484;10.216;2023-03-25T02:41:50;8.57;;;3.87;;
13571;SDS011;6857;53.484;10.216;2023-03-25T02:47:03;7.03;;;3.57;;
13571;SDS011;6857;53.484;10.216;2023-03-25T02:49:35;5.63;;;3.33;;
13571;SDS011;6857;53.484;10.216;2023-03-25T02:52:15;8.80;;;3.90;;
13571;SDS011;6857;53.484;10.216;2023-03-25T02:54:45;5.20;;;3.00;;
13571;SDS011;6857;53.484;10.216;2023-03-25T02:57:14;6.87;;;3.77;;
13571;SDS011;6857;53.484;10.216;2023-03-25T02:59:43;6.20;;;3.50;;
13571;SDS011;6857;53.484;10.216;2023-03-25T03:02:11;7.77;;;3.30;;
13571;SDS011;6857;53.484;10.216;2023-03-25T03:04:52;7.47;;;3.63;;
13571;SDS011;6857;53.484;10.216;2023-03-25T03:07:24;8.77;;;4.07;;
13571;SDS011;6857;53.484;10.216;2023-03-25T03:12:56;7.10;;;3.37;;
13571;SDS011;6857;53.484;10.216;2023-03-25T03:21:11;4.73;;;2.83;;
13571;SDS011;6857;53.484;10.216;2023-03-25T03:29:13;6.63;;;3.10;;
13571;SDS011;6857;53.484;10.216;2023-03-25T03:34:53;6.90;;;2.83;;
13571;SDS011;6857;53.484;10.216;2023-03-25T03:37:21;3.67;;;2.60;;
13571;SDS011;6857;53.484;10.216;2023-03-25T03:39:52;6.53;;;3.03;;
13571;SDS011;6857;53.484;10.216;2023-03-25T03:44:46;4.80;;;2.93;;
13571;SDS011;6857;53.484;10.216;2023-03-25T03:47:23;6.03;;;3.67;;
13571;SDS011;6857;53.484;10.216;2023-03-25T03:50:01;6.53;;;3.30;;
13571;SDS011;6857;53.484;10.216;2023-03-25T03:52:35;5.73;;;2.87;;
13571;SDS011;6857;53.484;10.216;2023-03-25T03:55:06;4.50;;;2.93;;
13571;SDS011;6857;53.484;10.216;2023-03-25T03:57:54;5.57;;;2.93;;
13571;SDS011;6857;53.484;10.216;2023-03-25T04:00:25;6.30;;;3.43;;
13571;SDS011;6857;53.484;10.216;2023-03-25T04:02:57;6.07;;;3.63;;
13571;SDS011;6857;53.484;10.216;2023-03-25T04:05:34;6.07;;;3.47;;
13571;SDS011;6857;53.484;10.216;2023-03-25T04:08:07;5.27;;;3.07;;
13571;SDS011;6857;53.484;10.216;2023-03-25T04:10:45;7.53;;;3.63;;
13571;SDS011;6857;53.484;10.216;2023-03-25T04:13:23;5.10;;;2.77;;
13571;SDS011;6857;53.484;10.216;2023-03-25T04:15:52;4.50;;;3.23;;
13571;SDS011;6857;53.484;10.216;2023-03-25T04:18:18;4.70;;;3.30;;
13571;SDS011;6857;53.484;10.216;2023-03-25T04:20:47;5.27;;;3.07;;
13571;SDS011;6857;53.484;10.216;2023-03-25T04:23:13;4.67;;;3.07;;
13571;SDS011;6857;53.484;10.216;2023-03-25T04:25:40;4.30;;;2.70;;
13571;SDS011;6857;53.484;10.216;2023-03-25T04:28:11;5.53;;;3.13;;
13571;SDS011;6857;53.484;10.216;2023-03-25T04:30:37;4.27;;;2.90;;
13571;SDS011;6857;53.484;10.216;2023-03-25T04:33:03;4.63;;;2.90;;
13571;SDS011;6857;53.484;10.216;2023-03-25T04:35:29;8.83;;;2.90;;
13571;SDS011;6857;53.484;10.216;2023-03-25T04:37:56;3.10;;;2.50;;
13571;SDS011;6857;53.484;10.216;2023-03-25T04:40:23;4.83;;;3.10;;
13571;SDS011;6857;53.484;10.216;2023-03-25T04:42:50;7.57;;;3.10;;
13571;SDS011;6857;53.484;10.216;2023-03-25T04:45:17;5.60;;;2.90;;
13571;SDS011;6857;53.484;10.216;2023-03-25T04:47:44;4.47;;;2.87;;
13571;SDS011;6857;53.484;10.216;2023-03-25T04:50:15;5.13;;;2.40;;
13571;SDS011;6857;53.484;10.216;2023-03-25T04:52:42;6.37;;;2.97;;
13571;SDS011;6857;53.484;10.216;2023-03-25T04:55:08;5.20;;;2.53;;
13571;SDS011;6857;53.484;10.216;2023-03-25T04:57:36;4.07;;;2.47;;
13571;SDS011;6857;53.484;10.216;2023-03-25T05:00:02;3.53;;;2.30;;
13571;SDS011;6857;53.484;10.216;2023-03-25T05:02:30;5.83;;;2.60;;
13571;SDS011;6857;53.484;10.216;2023-03-25T05:04:56;4.53;;;2.63;;
13571;SDS011;6857;53.484;10.216;2023-03-25T05:07:26;8.30;;;2.90;;
13571;SDS011;6857;53.484;10.216;2023-03-25T05:09:53;6.80;;;2.60;;
13571;SDS011;6857;53.484;10.216;2023-03-25T05:12:21;4.27;;;2.00;;
13571;SDS011;6857;53.484;10.216;2023-03-25T05:14:46;5.10;;;2.27;;
13571;SDS011;6857;53.484;10.216;2023-03-25T05:17:12;4.40;;;1.83;;
13571;SDS011;6857;53.484;10.216;2023-03-25T05:19:38;6.97;;;2.30;;
13571;SDS011;6857;53.484;10.216;2023-03-25T05:22:07;5.90;;;2.10;;
13571;SDS011;6857;53.484;10.216;2023-03-25T05:24:33;5.80;;;1.90;;
13571;SDS011;6857;53.484;10.216;2023-03-25T05:26:58;5.37;;;2.07;;
13571;SDS011;6857;53.484;10.216;2023-03-25T05:29:26;3.90;;;1.93;;
13571;SDS011;6857;53.484;10.216;2023-03-25T05:31:52;4.27;;;2.00;;
13571;SDS011;6857;53.484;10.216;2023-03-25T05:34:17;3.10;;;2.10;;
13571;SDS011;6857;53.484;10.216;2023-03-25T05:36:44;3.03;;;1.73;;
13571;SDS011;6857;53.484;10.216;2023-03-25T05:39:10;3.40;;;1.77;;
13571;SDS011;6857;53.484;10.216;2023-03-25T05:41:36;4.00;;;1.93;;
13571;SDS011;6857;53.484;10.216;2023-03-25T05:44:05;6.67;;;1.80;;
13571;SDS011;6857;53.484;10.216;2023-03-25T05:46:31;7.47;;;2.60;;
13571;SDS011;6857;53.484;10.216;2023-03-25T05:48:57;3.80;;;1.90;;
13571;SDS011;6857;53.484;10.216;2023-03-25T05:51:24;6.00;;;2.03;;
13571;SDS011;6857;53.484;10.216;2023-03-25T05:53:51;4.57;;;1.90;;
13571;SDS011;6857;53.484;10.216;2023-03-25T05:56:17;4.90;;;1.90;;
13571;SDS011;6857;53.484;10.216;2023-03-25T05:58:45;4.00;;;2.00;;
13571;SDS011;6857;53.484;10.216;2023-03-25T06:01:11;3.97;;;2.07;;
13571;SDS011;6857;53.484;10.216;2023-03-25T06:03:38;3.63;;;2.10;;
13571;SDS011;6857;53.484;10.216;2023-03-25T06:06:04;3.93;;;1.97;;
13571;SDS011;6857;53.484;10.216;2023-03-25T06:08:40;5.77;;;2.03;;
13571;SDS011;6857;53.484;10.216;2023-03-25T06:11:10;8.53;;;2.20;;
13571;SDS011;6857;53.484;10.216;2023-03-25T06:13:39;4.00;;;1.90;;
13571;SDS011;6857;53.484;10.216;2023-03-25T06:16:06;4.80;;;1.83;;
13571;SDS011;6857;53.484;10.216;2023-03-25T06:18:34;4.87;;;2.20;;
13571;SDS011;6857;53.484;10.216;2023-03-25T06:21:01;5.03;;;2.00;;
13571;SDS011;6857;53.484;10.216;2023-03-25T06:23:27;3.70;;;2.00;;
13571;SDS011;6857;53.484;10.216;2023-03-25T06:25:53;2.43;;;1.87;;
13571;SDS011;6857;53.484;10.216;2023-03-25T06:28:20;5.50;;;2.23;;
13571;SDS011;6857;53.484;10.216;2023-03-25T06:30:47;4.63;;;2.33;;
13571;SDS011;6857;53.484;10.216;2023-03-25T06:33:13;7.10;;;2.50;;
13571;SDS011;6857;53.484;10.216;2023-03-25T06:35:40;5.63;;;2.30;;
13571;SDS011;6857;53.484;10.216;2023-03-25T06:38:07;4.73;;;2.13;;
13571;SDS011;6857;53.484;10.216;2023-03-25T06:40:34;5.23;;;2.10;;
13571;SDS011;6857;53.484;10.216;2023-03-25T06:43:05;6.23;;;2.13;;
13571;SDS011;6857;53.484;10.216;2023-03-25T06:45:34;6.00;;;2.37;;
13571;SDS011;6857;53.484;10.216;2023-03-25T06:48:00;7.57;;;2.70;;
13571;SDS011;6857;53.484;10.216;2023-03-25T06:50:25;5.20;;;2.07;;
13571;SDS011;6857;53.484;10.216;2023-03-25T06:52:51;7.63;;;2.60;;
13571;SDS011;6857;53.484;10.216;2023-03-25T06:55:17;5.90;;;2.50;;
13571;SDS011;6857;53.484;10.216;2023-03-25T06:57:42;7.80;;;2.80;;
13571;SDS011;6857;53.484;10.216;2023-03-25T07:00:09;5.50;;;2.00;;
13571;SDS011;6857;53.484;10.216;2023-03-25T07:02:37;7.50;;;2.57;;
13571;SDS011;6857;53.484;10.216;2023-03-25T07:05:04;7.33;;;2.67;;
13571;SDS011;6857;53.484;10.216;2023-03-25T07:07:30;5.07;;;2.30;;
13571;SDS011;6857;53.484;10.216;2023-03-25T07:09:55;7.23;;;2.47;;
13571;SDS011;6857;53.484;10.216;2023-03-25T07:12:21;7.33;;;2.40;;
13571;SDS011;6857;53.484;10.216;2023-03-25T07:14:51;5.33;;;2.10;;
13571;SDS011;6857;53.484;10.216;2023-03-25T07:17:17;9.17;;;2.70;;
13571;SDS011;6857;53.484;10.216;2023-03-25T07:19:43;5.77;;;2.10;;
13571;SDS011;6857;53.484;10.216;2023-03-25T07:22:08;7.40;;;2.10;;
13571;SDS011;6857;53.484;10.216;2023-03-25T07:24:34;6.33;;;2.00;;
13571;SDS011;6857;53.484;10.216;2023-03-25T07:26:59;6.00;;;2.63;;
13571;SDS011;6857;53.484;10.216;2023-03-25T07:29:25;5.93;;;2.30;;
13571;SDS011;6857;53.484;10.216;2023-03-25T07:31:50;7.60;;;2.23;;
13571;SDS011;6857;53.484;10.216;2023-03-25T07:34:16;5.43;;;2.07;;
13571;SDS011;6857;53.484;10.216;2023-03-25T07:36:42;6.83;;;1.97;;
13571;SDS011;6857;53.484;10.216;2023-03-25T07:39:07;6.10;;;1.80;;
13571;SDS011;6857;53.484;10.216;2023-03-25T07:41:33;6.57;;;2.00;;
13571;SDS011;6857;53.484;10.216;2023-03-25T07:43:58;5.77;;;1.70;;
13571;SDS011;6857;53.484;10.216;2023-03-25T07:46:24;2.77;;;1.70;;
13571;SDS011;6857;53.484;10.216;2023-03-25T07:48:50;6.43;;;1.80;;
13571;SDS011;6857;53.484;10.216;2023-03-25T07:51:16;6.63;;;1.93;;
13571;SDS011;6857;53.484;10.216;2023-03-25T07:53:42;5.47;;;2.10;;
13571;SDS011;6857;53.484;10.216;2023-03-25T07:56:09;5.27;;;1.67;;
13571;SDS011;6857;53.484;10.216;2023-03-25T07:58:35;4.90;;;1.87;;
13571;SDS011;6857;53.484;10.216;2023-03-25T08:01:01;7.13;;;2.33;;
13571;SDS011;6857;53.484;10.216;2023-03-25T08:03:27;6.43;;;1.80;;
13571;SDS011;6857;53.484;10.216;2023-03-25T08:05:52;6.33;;;1.93;;
13571;SDS011;6857;53.484;10.216;2023-03-25T08:08:18;4.27;;;1.70;;
13571;SDS011;6857;53.484;10.216;2023-03-25T08:10:44;4.77;;;1.80;;
13571;SDS011;6857;53.484;10.216;2023-03-25T08:13:12;4.87;;;1.60;;
13571;SDS011;6857;53.484;10.216;2023-03-25T08:15:38;4.87;;;1.53;;
13571;SDS011;6857;53.484;10.216;2023-03-25T08:18:04;4.10;;;1.37;;
13571;SDS011;6857;53.484;10.216;2023-03-25T08:20:31;4.47;;;1.53;;
13571;SDS011;6857;53.484;10.216;2023-03-25T08:22:57;4.63;;;1.60;;
13571;SDS011;6857;53.484;10.216;2023-03-25T08:25:23;4.93;;;1.77;;
13571;SDS011;6857;53.484;10.216;2023-03-25T08:27:49;4.53;;;1.63;;
13571;SDS011;6857;53.484;10.216;2023-03-25T08:30:15;5.07;;;1.97;;
13571;SDS011;6857;53.484;10.216;2023-03-25T08:32:41;3.03;;;1.30;;
13571;SDS011;6857;53.484;10.216;2023-03-25T08:35:10;4.63;;;1.77;;
13571;SDS011;6857;53.484;10.216;2023-03-25T08:37:36;4.27;;;1.70;;
13571;SDS011;6857;53.484;10.216;2023-03-25T08:40:03;4.40;;;1.80;;
13571;SDS011;6857;53.484;10.216;2023-03-25T08:42:36;7.23;;;1.77;;
13571;SDS011;6857;53.484;10.216;2023-03-25T08:45:03;3.73;;;1.50;;
13571;SDS011;6857;53.484;10.216;2023-03-25T08:47:29;5.60;;;1.90;;
13571;SDS011;6857;53.484;10.216;2023-03-25T08:49:55;4.63;;;1.43;;
13571;SDS011;6857;53.484;10.216;2023-03-25T08:52:20;5.70;;;1.90;;
13571;SDS011;6857;53.484;10.216;2023-03-25T08:54:46;4.33;;;1.70;;
13571;SDS011;6857;53.484;10.216;2023-03-25T08:57:12;5.10;;;2.00;;
13571;SDS011;6857;53.484;10.216;2023-03-25T08:59:38;3.83;;;1.70;;
13571;SDS011;6857;53.484;10.216;2023-03-25T09:02:03;3.53;;;1.57;;
13571;SDS011;6857;53.484;10.216;2023-03-25T09:04:29;4.17;;;1.63;;
13571;SDS011;6857;53.484;10.216;2023-03-25T09:06:55;4.23;;;1.80;;
13571;SDS011;6857;53.484;10.216;2023-03-25T09:09:21;3.37;;;1.70;;
13571;SDS011;6857;53.484;10.216;2023-03-25T09:11:47;5.77;;;1.67;;
13571;SDS011;6857;53.484;10.216;2023-03-25T09:14:12;4.90;;;1.90;;
13571;SDS011;6857;53.484;10.216;2023-03-25T09:16:38;4.83;;;1.87;;
13571;SDS011;6857;53.484;10.216;2023-03-25T09:19:04;4.13;;;1.77;;
13571;SDS011;6857;53.484;10.216;2023-03-25T09:21:30;5.43;;;1.47;;
13571;SDS011;6857;53.484;10.216;2023-03-25T09:23:56;4.30;;;1.87;;
13571;SDS011;6857;53.484;10.216;2023-03-25T09:26:21;4.70;;;1.80;;
13571;SDS011;6857;53.484;10.216;2023-03-25T09:28:47;4.47;;;1.80;;
13571;SDS011;6857;53.484;10.216;2023-03-25T09:31:12;3.57;;;1.80;;
13571;SDS011;6857;53.484;10.216;2023-03-25T09:33:38;3.47;;;1.40;;
13571;SDS011;6857;53.484;10.216;2023-03-25T09:36:04;4.43;;;1.53;;
13571;SDS011;6857;53.484;10.216;2023-03-25T09:38:32;4.03;;;1.20;;
13571;SDS011;6857;53.484;10.216;2023-03-25T09:40:57;3.37;;;1.30;;
13571;SDS011;6857;53.484;10.216;2023-03-25T09:46:41;2.10;;;1.23;;
13571;SDS011;6857;53.484;10.216;2023-03-25T09:49:12;2.53;;;1.10;;
13571;SDS011;6857;53.484;10.216;2023-03-25T09:51:44;2.50;;;1.40;;
13571;SDS011;6857;53.484;10.216;2023-03-25T09:56:47;2.70;;;1.20;;
13571;SDS011;6857;53.484;10.216;2023-03-25T09:59:16;3.53;;;1.20;;
13571;SDS011;6857;53.484;10.216;2023-03-25T10:10:51;3.20;;;1.70;;
13571;SDS011;6857;53.484;10.216;2023-03-25T10:13:49;2.53;;;1.63;;
13571;SDS011;6857;53.484;10.216;2023-03-25T10:21:46;7.17;;;1.40;;
13571;SDS011;6857;53.484;10.216;2023-03-25T10:24:21;3.57;;;1.17;;
13571;SDS011;6857;53.484;10.216;2023-03-25T10:27:02;3.93;;;1.30;;
13571;SDS011;6857;53.484;10.216;2023-03-25T10:29:44;5.70;;;1.70;;
13571;SDS011;6857;53.484;10.216;2023-03-25T10:32:30;5.97;;;1.53;;
13571;SDS011;6857;53.484;10.216;2023-03-25T10:35:01;6.17;;;2.17;;
13571;SDS011;6857;53.484;10.216;2023-03-25T10:37:36;3.87;;;1.20;;
13571;SDS011;6857;53.484;10.216;2023-03-25T10:42:47;4.63;;;1.87;;
13571;SDS011;6857;53.484;10.216;2023-03-25T10:45:35;2.67;;;1.00;;
13571;SDS011;6857;53.484;10.216;2023-03-25T10:48:06;5.27;;;1.30;;
13571;SDS011;6857;53.484;10.216;2023-03-25T10:50:35;4.87;;;1.27;;
13571;SDS011;6857;53.484;10.216;2023-03-25T10:53:02;4.03;;;1.60;;
13571;SDS011;6857;53.484;10.216;2023-03-25T10:55:29;3.20;;;1.07;;
13571;SDS011;6857;53.484;10.216;2023-03-25T10:57:58;5.60;;;1.83;;
13571;SDS011;6857;53.484;10.216;2023-03-25T11:00:25;6.20;;;1.67;;
13571;SDS011;6857;53.484;10.216;2023-03-25T11:02:51;4.97;;;1.40;;
13571;SDS011;6857;53.484;10.216;2023-03-25T11:05:20;6.57;;;1.67;;
13571;SDS011;6857;53.484;10.216;2023-03-25T11:07:49;6.83;;;1.57;;
13571;SDS011;6857;53.484;10.216;2023-03-25T11:10:25;3.47;;;1.20;;
13571;SDS011;6857;53.484;10.216;2023-03-25T11:12:58;3.93;;;1.50;;
13571;SDS011;6857;53.484;10.216;2023-03-25T11:15:35;4.33;;;1.50;;
13571;SDS011;6857;53.484;10.216;2023-03-25T11:20:54;3.67;;;1.40;;
13571;SDS011;6857;53.484;10.216;2023-03-25T11:23:35;6.30;;;2.20;;
13571;SDS011;6857;53.484;10.216;2023-03-25T11:28:44;6.53;;;1.80;;
13571;SDS011;6857;53.484;10.216;2023-03-25T11:31:24;9.40;;;2.00;;
13571;SDS011;6857;53.484;10.216;2023-03-25T11:39:37;5.07;;;1.30;;
13571;SDS011;6857;53.484;10.216;2023-03-25T11:44:50;3.43;;;1.53;;
13571;SDS011;6857;53.484;10.216;2023-03-25T11:47:21;4.23;;;1.20;;
13571;SDS011;6857;53.484;10.216;2023-03-25T11:50:00;4.27;;;1.50;;
13571;SDS011;6857;53.484;10.216;2023-03-25T11:52:40;3.13;;;0.83;;
13571;SDS011;6857;53.484;10.216;2023-03-25T11:55:15;3.93;;;0.80;;
13571;SDS011;6857;53.484;10.216;2023-03-25T11:57:49;1.17;;;0.67;;
13571;SDS011;6857;53.484;10.216;2023-03-25T12:03:08;1.43;;;0.60;;
13571;SDS011;6857;53.484;10.216;2023-03-25T12:05:55;2.03;;;0.90;;
13571;SDS011;6857;53.484;10.216;2023-03-25T12:08:22;1.93;;;0.80;;
13571;SDS011;6857;53.484;10.216;2023-03-25T12:10:59;1.77;;;0.80;;
13571;SDS011;6857;53.484;10.216;2023-03-25T12:13:44;3.13;;;0.70;;
13571;SDS011;6857;53.484;10.216;2023-03-25T12:16:25;1.40;;;0.90;;
13571;SDS011;6857;53.484;10.216;2023-03-25T12:27:58;4.47;;;0.97;;
13571;SDS011;6857;53.484;10.216;2023-03-25T12:36:39;2.03;;;1.10;;
13571;SDS011;6857;53.484;10.216;2023-03-25T12:39:32;3.00;;;1.10;;
13571;SDS011;6857;53.484;10.216;2023-03-25T12:48:09;2.80;;;1.20;;
13571;SDS011;6857;53.484;10.216;2023-03-25T12:51:06;3.37;;;1.50;;
13571;SDS011;6857;53.484;10.216;2023-03-25T12:56:53;3.90;;;1.30;;
13571;SDS011;6857;53.484;10.216;2023-03-25T12:59:44;3.70;;;1.43;;
13571;SDS011;6857;53.484;10.216;2023-03-25T13:08:12;4.97;;;2.03;;
13571;SDS011;6857;53.484;10.216;2023-03-25T13:10:43;5.07;;;2.00;;
13571;SDS011;6857;53.484;10.216;2023-03-25T13:13:16;4.57;;;2.00;;
13571;SDS011;6857;53.484;10.216;2023-03-25T13:15:51;4.73;;;2.10;;
13571;SDS011;6857;53.484;10.216;2023-03-25T13:18:39;4.07;;;2.10;;
13571;SDS011;6857;53.484;10.216;2023-03-25T13:21:24;8.80;;;4.27;;
13571;SDS011;6857;53.484;10.216;2023-03-25T13:23:57;10.47;;;3.50;;
13571;SDS011;6857;53.484;10.216;2023-03-25T13:26:29;6.13;;;2.27;;
13571;SDS011;6857;53.484;10.216;2023-03-25T13:29:00;6.20;;;2.10;;
13571;SDS011;6857;53.484;10.216;2023-03-25T13:31:33;5.53;;;2.37;;
13571;SDS011;6857;53.484;10.216;2023-03-25T13:34:13;7.23;;;3.43;;
13571;SDS011;6857;53.484;10.216;2023-03-25T13:42:21;4.20;;;2.20;;
13571;SDS011;6857;53.484;10.216;2023-03-25T13:45:13;8.30;;;2.60;;
13571;SDS011;6857;53.484;10.216;2023-03-25T13:50:19;6.33;;;3.00;;
13571;SDS011;6857;53.484;10.216;2023-03-25T13:52:53;4.40;;;1.73;;
13571;SDS011;6857;53.484;10.216;2023-03-25T13:55:38;4.97;;;1.83;;
13571;SDS011;6857;53.484;10.216;2023-03-25T14:00:53;8.17;;;2.90;;
13571;SDS011;6857;53.484;10.216;2023-03-25T14:14:27;6.10;;;3.23;;
13571;SDS011;6857;53.484;10.216;2023-03-25T14:16:59;3.70;;;2.00;;
13571;SDS011;6857;53.484;10.216;2023-03-25T14:19:30;6.33;;;2.87;;
13571;SDS011;6857;53.484;10.216;2023-03-25T14:21:57;6.43;;;3.27;;
13571;SDS011;6857;53.484;10.216;2023-03-25T14:24:30;5.00;;;3.53;;
13571;SDS011;6857;53.484;10.216;2023-03-25T14:27:06;9.63;;;3.50;;
13571;SDS011;6857;53.484;10.216;2023-03-25T14:29:55;6.83;;;2.17;;
13571;SDS011;6857;53.484;10.216;2023-03-25T14:37:56;1.97;;;0.80;;
13571;SDS011;6857;53.484;10.216;2023-03-25T14:43:25;3.27;;;1.07;;
13571;SDS011;6857;53.484;10.216;2023-03-25T14:48:41;4.47;;;1.00;;
13571;SDS011;6857;53.484;10.216;2023-03-25T14:51:16;2.10;;;0.90;;
13571;SDS011;6857;53.484;10.216;2023-03-25T14:53:50;5.97;;;1.60;;
13571;SDS011;6857;53.484;10.216;2023-03-25T14:56:35;5.13;;;1.30;;
13571;SDS011;6857;53.484;10.216;2023-03-25T14:59:08;3.63;;;1.50;;
13571;SDS011;6857;53.484;10.216;2023-03-25T15:01:39;3.83;;;1.40;;
13571;SDS011;6857;53.484;10.216;2023-03-25T15:04:28;2.20;;;1.20;;
13571;SDS011;6857;53.484;10.216;2023-03-25T15:06:58;1.27;;;0.70;;
13571;SDS011;6857;53.484;10.216;2023-03-25T15:09:26;2.57;;;0.73;;
13571;SDS011;6857;53.484;10.216;2023-03-25T15:11:56;2.47;;;1.07;;
13571;SDS011;6857;53.484;10.216;2023-03-25T15:14:29;1.67;;;0.70;;
13571;SDS011;6857;53.484;10.216;2023-03-25T15:17:00;0.90;;;0.67;;
13571;SDS011;6857;53.484;10.216;2023-03-25T15:22:36;3.27;;;1.00;;
13571;SDS011;6857;53.484;10.216;2023-03-25T15:25:09;3.57;;;1.53;;
13571;SDS011;6857;53.484;10.216;2023-03-25T15:27:51;3.80;;;2.30;;
13571;SDS011;6857;53.484;10.216;2023-03-25T15:36:08;2.10;;;1.00;;
13571;SDS011;6857;53.484;10.216;2023-03-25T15:49:37;5.33;;;1.90;;
13571;SDS011;6857;53.484;10.216;2023-03-25T15:55:03;2.70;;;0.73;;
13571;SDS011;6857;53.484;10.216;2023-03-25T15:57:37;2.97;;;0.90;;
13571;SDS011;6857;53.484;10.216;2023-03-25T16:00:42;2.67;;;1.00;;
13571;SDS011;6857;53.484;10.216;2023-03-25T16:05:32;3.23;;;1.83;;
13571;SDS011;6857;53.484;10.216;2023-03-25T16:08:04;2.53;;;1.93;;
13571;SDS011;6857;53.484;10.216;2023-03-25T16:10:33;3.93;;;1.97;;
13571;SDS011;6857;53.484;10.216;2023-03-25T16:13:03;1.13;;;0.80;;
13571;SDS011;6857;53.484;10.216;2023-03-25T16:15:31;4.67;;;2.47;;
13571;SDS011;6857;53.484;10.216;2023-03-25T16:17:59;3.53;;;1.87;;
13571;SDS011;6857;53.484;10.216;2023-03-25T16:20:31;2.10;;;0.90;;
13571;SDS011;6857;53.484;10.216;2023-03-25T16:22:59;3.40;;;1.40;;
13571;SDS011;6857;53.484;10.216;2023-03-25T16:25:34;3.57;;;2.57;;
13571;SDS011;6857;53.484;10.216;2023-03-25T16:28:04;2.60;;;0.93;;
13571;SDS011;6857;53.484;10.216;2023-03-25T16:30:32;4.23;;;1.30;;
13571;SDS011;6857;53.484;10.216;2023-03-25T16:35:34;4.13;;;1.43;;
13571;SDS011;6857;53.484;10.216;2023-03-25T16:38:27;4.40;;;1.33;;
13571;SDS011;6857;53.484;10.216;2023-03-25T16:41:01;3.30;;;1.23;;
13571;SDS011;6857;53.484;10.216;2023-03-25T16:43:37;2.50;;;1.20;;
13571;SDS011;6857;53.484;10.216;2023-03-25T16:46:03;3.83;;;1.60;;
13571;SDS011;6857;53.484;10.216;2023-03-25T16:51:21;2.20;;;1.37;;
13571;SDS011;6857;53.484;10.216;2023-03-25T16:53:53;1.80;;;1.13;;
13571;SDS011;6857;53.484;10.216;2023-03-25T16:56:29;3.33;;;1.30;;
13571;SDS011;6857;53.484;10.216;2023-03-25T16:58:57;5.87;;;2.40;;
13571;SDS011;6857;53.484;10.216;2023-03-25T17:01:32;6.23;;;2.77;;
13571;SDS011;6857;53.484;10.216;2023-03-25T17:04:20;5.40;;;3.10;;
13571;SDS011;6857;53.484;10.216;2023-03-25T17:06:52;2.93;;;1.60;;
13571;SDS011;6857;53.484;10.216;2023-03-25T17:09:22;2.40;;;1.30;;
13571;SDS011;6857;53.484;10.216;2023-03-25T17:11:58;3.60;;;1.30;;
13571;SDS011;6857;53.484;10.216;2023-03-25T17:14:27;4.00;;;1.47;;
13571;SDS011;6857;53.484;10.216;2023-03-25T17:17:02;1.43;;;1.20;;
13571;SDS011;6857;53.484;10.216;2023-03-25T17:19:36;5.10;;;1.80;;
13571;SDS011;6857;53.484;10.216;2023-03-25T17:22:25;2.33;;;1.70;;
13571;SDS011;6857;53.484;10.216;2023-03-25T17:24:56;6.40;;;2.20;;
13571;SDS011;6857;53.484;10.216;2023-03-25T17:27:36;2.97;;;1.80;;
13571;SDS011;6857;53.484;10.216;2023-03-25T17:32:45;5.97;;;3.47;;
13571;SDS011;6857;53.484;10.216;2023-03-25T17:35:18;3.80;;;1.03;;
13571;SDS011;6857;53.484;10.216;2023-03-25T17:37:51;1.50;;;0.70;;
13571;SDS011;6857;53.484;10.216;2023-03-25T17:40:21;1.43;;;0.40;;
13571;SDS011;6857;53.484;10.216;2023-03-25T17:42:49;2.03;;;1.07;;
13571;SDS011;6857;53.484;10.216;2023-03-25T17:45:16;1.33;;;0.73;;
13571;SDS011;6857;53.484;10.216;2023-03-25T17:47:43;1.90;;;0.80;;
13571;SDS011;6857;53.484;10.216;2023-03-25T17:50:16;1.10;;;0.70;;
13571;SDS011;6857;53.484;10.216;2023-03-25T17:52:45;1.67;;;0.70;;
13571;SDS011;6857;53.484;10.216;2023-03-25T17:55:10;4.30;;;0.70;;
13571;SDS011;6857;53.484;10.216;2023-03-25T17:57:37;2.03;;;1.00;;
13571;SDS011;6857;53.484;10.216;2023-03-25T18:00:04;1.87;;;1.03;;